Time;durP1;ratioP1;P1;durP2;ratioP2;P2;SDS_P1;SDS_P2;PMS_P1;PMS_P2;Temp;Humidity;BMP_temperature;BMP_pressure;BME280_temperature;BME280_humidity;BME280_pressure;Samples;Min_cycle;Max_cycle;Signal;HPM_P1;HPM_P2
2022/07/11 00:02:17;;;;;;;6.47;2.50;;;11.60;99.90;;;;;;4954750;29;20062;-76
2022/07/11 00:04:46;;;;;;;7.93;2.38;;;11.50;99.90;;;;;;4954982;29;20023;-76
2022/07/11 00:07:14;;;;;;;7.10;2.78;;;11.50;99.90;;;;;;4954705;29;20055;-76
2022/07/11 00:09:41;;;;;;;8.07;2.53;;;11.40;99.90;;;;;;4954930;29;20038;-76
2022/07/11 00:12:10;;;;;;;8.88;2.92;;;11.40;99.90;;;;;;4954819;29;20023;-76
2022/07/11 00:14:39;;;;;;;5.03;2.50;;;11.30;99.90;;;;;;4954995;29;20027;-77
2022/07/11 00:17:10;;;;;;;6.78;2.40;;;11.40;99.90;;;;;;4955087;29;20016;-77
2022/07/11 00:19:38;;;;;;;4.90;1.80;;;11.30;99.90;;;;;;4937579;29;20480;-77
2022/07/11 00:22:06;;;;;;;6.30;2.08;;;11.30;99.90;;;;;;4954713;29;20070;-77
2022/07/11 00:24:34;;;;;;;6.95;2.17;;;11.30;99.90;;;;;;4954600;29;20107;-77
2022/07/11 00:27:01;;;;;;;7.85;2.17;;;11.30;99.90;;;;;;4937377;29;20031;-77
2022/07/11 00:29:29;;;;;;;10.25;2.97;;;11.40;99.90;;;;;;4954574;29;20042;-75
2022/07/11 00:31:59;;;;;;;7.88;3.45;;;11.50;99.90;;;;;;4954360;29;20026;-76
2022/07/11 00:34:27;;;;;;;10.40;3.10;;;11.50;99.90;;;;;;4954745;29;20078;-76
2022/07/11 00:36:54;;;;;;;7.72;2.85;;;11.50;99.90;;;;;;4954365;29;20066;-76
2022/07/11 00:39:22;;;;;;;7.75;2.88;;;11.40;99.90;;;;;;4937096;29;20033;-76
2022/07/11 00:41:49;;;;;;;8.13;3.00;;;11.40;99.90;;;;;;4954378;29;20094;-76
2022/07/11 00:44:17;;;;;;;10.65;3.15;;;11.40;99.90;;;;;;4954371;29;20034;-77
2022/07/11 00:46:44;;;;;;;7.40;2.42;;;11.60;99.90;;;;;;4954211;29;20488;-76
2022/07/11 00:49:12;;;;;;;5.75;2.60;;;11.60;99.90;;;;;;4940073;29;20028;-77
2022/07/11 00:51:39;;;;;;;7.45;2.75;;;11.60;99.90;;;;;;4958096;29;20140;-75
2022/07/11 00:54:10;;;;;;;7.10;2.95;;;11.60;99.90;;;;;;4958143;29;20015;-76
2022/07/11 00:56:38;;;;;;;6.57;3.20;;;11.60;99.90;;;;;;4940568;29;20023;-76
2022/07/11 00:59:05;;;;;;;6.82;3.58;;;11.50;99.90;;;;;;4958013;29;20035;-75
2022/07/11 01:01:35;;;;;;;7.00;3.03;;;11.50;99.90;;;;;;4940497;29;20166;-75
2022/07/11 01:04:03;;;;;;;6.20;2.25;;;11.80;99.90;;;;;;4957865;29;20027;-76
2022/07/11 01:06:31;;;;;;;6.93;2.85;;;12.00;99.90;;;;;;4957477;29;20070;-75
2022/07/11 01:08:58;;;;;;;7.22;2.85;;;12.20;99.90;;;;;;4940344;29;20031;-76
2022/07/11 01:11:27;;;;;;;5.10;2.40;;;12.40;99.90;;;;;;4957626;29;20030;-76
2022/07/11 01:13:55;;;;;;;5.25;2.15;;;12.70;99.90;;;;;;4957726;29;20452;-76
2022/07/11 01:16:23;;;;;;;3.58;1.52;;;12.80;99.90;;;;;;4957702;29;20074;-75
2022/07/11 01:18:54;;;;;;;7.85;2.22;;;12.90;99.90;;;;;;4957534;29;20074;-75
2022/07/11 01:21:26;;;;;;;7.60;2.08;;;13.20;99.90;;;;;;4957692;29;20031;-75
2022/07/11 01:23:56;;;;;;;4.68;2.05;;;13.40;99.90;;;;;;4939963;29;20415;-75
2022/07/11 01:26:25;;;;;;;6.38;1.98;;;13.60;99.90;;;;;;4940175;29;20028;-75
2022/07/11 01:28:53;;;;;;;6.78;1.92;;;13.70;99.90;;;;;;4957266;29;20024;-75
2022/07/11 01:31:21;;;;;;;5.18;1.85;;;13.80;99.90;;;;;;4957508;29;20476;-75
2022/07/11 01:33:49;;;;;;;5.32;1.40;;;13.80;99.90;;;;;;4957422;29;20023;-75
2022/07/11 01:36:17;;;;;;;6.28;1.75;;;14.00;99.90;;;;;;4957427;29;20020;-75
2022/07/11 01:38:44;;;;;;;5.18;1.60;;;13.90;99.90;;;;;;4957142;29;20126;-75
2022/07/11 01:41:11;;;;;;;3.10;1.52;;;14.10;99.90;;;;;;4957454;29;20027;-75
2022/07/11 01:43:39;;;;;;;2.92;1.52;;;14.20;99.90;;;;;;4957353;29;20169;-76
2022/07/11 01:46:06;;;;;;;5.53;1.60;;;14.20;99.90;;;;;;4957560;29;20069;-75
2022/07/11 01:48:33;;;;;;;7.07;1.55;;;14.40;99.90;;;;;;4940052;29;20036;-75
2022/07/11 01:51:01;;;;;;;3.28;1.20;;;14.50;99.90;;;;;;4940005;29;20031;-76
2022/07/11 01:53:28;;;;;;;4.82;1.38;;;14.50;99.90;;;;;;4957463;29;20027;-76
2022/07/11 01:55:55;;;;;;;4.32;1.40;;;14.70;99.90;;;;;;4957301;29;20543;-76
2022/07/11 01:58:23;;;;;;;4.28;1.27;;;14.80;99.90;;;;;;4957214;29;20384;-76
2022/07/11 02:00:50;;;;;;;4.63;1.83;;;14.70;99.90;;;;;;4956521;28;20106;-76
2022/07/11 02:03:17;;;;;;;6.63;1.80;;;14.50;99.90;;;;;;4956994;29;20027;-75
2022/07/11 02:05:45;;;;;;;4.70;1.40;;;14.20;99.90;;;;;;4956751;29;20039;-75
2022/07/11 02:08:12;;;;;;;4.90;1.33;;;14.00;99.90;;;;;;4956788;29;20023;-75
2022/07/11 02:10:45;;;;;;;3.30;0.70;;;13.90;99.90;;;;;;4939623;29;20023;-76
2022/07/11 02:13:18;;;;;;;2.50;0.95;;;13.80;99.90;;;;;;4957362;29;20447;-75
2022/07/11 02:15:46;;;;;;;3.47;0.90;;;13.70;99.90;;;;;;4957599;29;20098;-75
2022/07/11 02:18:14;;;;;;;5.70;1.92;;;13.50;99.90;;;;;;4958968;29;20030;-75
2022/07/11 02:20:42;;;;;;;6.95;1.92;;;13.30;99.90;;;;;;4958830;29;20058;-74
2022/07/11 02:23:10;;;;;;;5.93;1.67;;;13.20;99.90;;;;;;4958896;29;20033;-75
2022/07/11 02:25:40;;;;;;;5.70;1.98;;;13.20;99.90;;;;;;4959835;29;20082;-75
2022/07/11 02:28:08;;;;;;;8.18;2.33;;;13.30;99.90;;;;;;4944797;29;20023;-75
2022/07/11 02:30:40;;;;;;;7.32;2.55;;;13.20;99.90;;;;;;4963611;29;20077;-75
2022/07/11 02:33:13;;;;;;;7.18;2.10;;;13.20;99.90;;;;;;4963211;29;20051;-75
2022/07/11 02:35:41;;;;;;;5.97;2.17;;;13.20;99.90;;;;;;4961185;29;20020;-76
2022/07/11 02:38:08;;;;;;;7.13;1.92;;;13.20;99.90;;;;;;4961077;29;20027;-76
2022/07/11 02:40:36;;;;;;;5.00;1.65;;;13.30;99.90;;;;;;4962144;29;20496;-76
2022/07/11 02:43:04;;;;;;;5.72;1.67;;;13.20;99.90;;;;;;4963146;29;20027;-76
2022/07/11 02:45:41;;;;;;;7.95;1.85;;;13.10;99.90;;;;;;4969535;29;20035;-76
2022/07/11 02:48:08;;;;;;;5.88;1.88;;;13.10;99.90;;;;;;4966675;29;20110;-76
2022/07/11 02:50:36;;;;;;;5.72;1.83;;;13.20;99.90;;;;;;4960954;29;20057;-75
2022/07/11 02:53:03;;;;;;;8.00;2.42;;;13.10;99.90;;;;;;4958173;29;20026;-75
2022/07/11 02:55:31;;;;;;;6.00;2.47;;;13.10;99.90;;;;;;4957850;29;20019;-75
2022/07/11 02:57:59;;;;;;;6.45;1.75;;;13.20;99.90;;;;;;4958023;29;20020;-75
2022/07/11 03:00:27;;;;;;;6.45;1.73;;;13.40;99.90;;;;;;4939699;29;20051;-75
2022/07/11 03:02:54;;;;;;;7.80;1.50;;;13.60;99.90;;;;;;4957992;29;20034;-75
2022/07/11 03:05:22;;;;;;;6.65;1.40;;;13.60;99.90;;;;;;4957798;29;20392;-75
2022/07/11 03:07:49;;;;;;;6.10;1.63;;;13.70;99.90;;;;;;4964750;29;20031;-76
2022/07/11 03:10:17;;;;;;;6.95;1.85;;;13.70;99.90;;;;;;4959010;28;20055;-75
2022/07/11 03:12:45;;;;;;;6.90;1.58;;;13.70;99.90;;;;;;4955838;29;20443;-76
2022/07/11 03:15:12;;;;;;;7.10;1.80;;;13.80;99.90;;;;;;4955435;29;20078;-76
2022/07/11 03:17:39;;;;;;;7.30;2.20;;;13.90;99.90;;;;;;4955369;29;20020;-76
2022/07/11 03:20:08;;;;;;;6.32;1.83;;;14.10;99.90;;;;;;4955442;29;20027;-76
2022/07/11 03:22:36;;;;;;;11.38;2.00;;;14.20;99.90;;;;;;4955469;29;20058;-76
2022/07/11 03:25:06;;;;;;;13.82;2.63;;;14.50;99.90;;;;;;4938348;29;20392;-76
2022/07/11 03:27:34;;;;;;;;;;;14.80;99.90;;;;;;4957584;29;20054;-76
2022/07/11 03:30:01;;;;;;;7.63;1.80;;;15.10;99.90;;;;;;4956739;29;20373;-76
2022/07/11 03:32:29;;;;;;;7.35;1.98;;;15.30;99.90;;;;;;4956635;29;20043;-77
2022/07/11 03:37:41;;;;;;;9.93;1.88;;;16.00;99.90;;;;;;4957626;29;20034;-76
2022/07/11 03:40:10;;;;;;;9.02;2.38;;;16.20;99.90;;;;;;4943746;29;20436;-76
2022/07/11 03:42:37;;;;;;;5.90;1.52;;;16.20;99.90;;;;;;4944415;29;20090;-76
2022/07/11 03:45:05;;;;;;;5.57;1.10;;;15.80;99.90;;;;;;4964907;29;20050;-77
2022/07/11 03:47:33;;;;;;;4.03;0.85;;;15.40;99.90;;;;;;4954883;29;20038;-77
2022/07/11 03:50:00;;;;;;;3.67;0.68;;;15.10;99.90;;;;;;4966857;29;20029;-77
2022/07/11 03:52:27;;;;;;;3.72;0.90;;;14.90;99.90;;;;;;4963379;29;20110;-75
2022/07/11 03:54:55;;;;;;;7.25;0.90;;;14.80;99.90;;;;;;4959137;29;20369;-75
2022/07/11 03:57:22;;;;;;;5.35;0.90;;;14.80;99.90;;;;;;4941963;29;20023;-76
2022/07/11 03:59:49;;;;;;;3.88;1.05;;;14.70;99.90;;;;;;4941636;29;20038;-76
2022/07/11 04:02:17;;;;;;;4.63;0.90;;;14.60;99.90;;;;;;4962647;29;20030;-76
2022/07/11 04:04:44;;;;;;;3.35;1.30;;;14.40;99.90;;;;;;4962608;29;20079;-76
2022/07/11 04:07:11;;;;;;;4.03;1.00;;;14.40;99.90;;;;;;4945318;29;20055;-76
2022/07/11 04:09:39;;;;;;;4.90;1.08;;;14.30;99.90;;;;;;4962651;29;20118;-76
2022/07/11 04:12:07;;;;;;;4.88;0.90;;;14.20;99.90;;;;;;4962750;29;20074;-76
2022/07/11 04:14:34;;;;;;;5.22;1.23;;;14.20;99.90;;;;;;4961341;29;20050;-76
2022/07/11 04:17:02;;;;;;;4.35;1.25;;;14.20;99.90;;;;;;4944662;29;20020;-76
2022/07/11 04:19:29;;;;;;;3.67;0.90;;;14.20;99.90;;;;;;4960293;29;20031;-75
2022/07/11 04:21:58;;;;;;;4.82;1.27;;;14.20;99.90;;;;;;4958377;28;20035;-75
2022/07/11 04:24:25;;;;;;;4.47;1.40;;;14.20;99.90;;;;;;4941388;29;20104;-75
2022/07/11 04:26:53;;;;;;;3.80;1.15;;;14.20;99.90;;;;;;4958217;29;20023;-75
2022/07/11 04:29:20;;;;;;;4.10;1.20;;;14.20;99.90;;;;;;4959158;29;20473;-75
2022/07/11 04:31:47;;;;;;;7.30;1.15;;;14.10;99.90;;;;;;4942837;29;20480;-75
2022/07/11 04:34:15;;;;;;;6.72;1.75;;;14.00;99.90;;;;;;4962200;29;20023;-75
2022/07/11 04:36:42;;;;;;;8.18;1.55;;;13.80;99.90;;;;;;4944629;29;20034;-75
2022/07/11 04:39:09;;;;;;;7.07;2.05;;;13.80;99.90;;;;;;4962106;29;20106;-75
2022/07/11 04:41:37;;;;;;;4.45;1.52;;;13.70;99.90;;;;;;4957141;29;20032;-74
2022/07/11 04:44:05;;;;;;;6.72;1.60;;;13.60;99.90;;;;;;4938161;29;20031;-74
2022/07/11 04:46:32;;;;;;;7.13;1.67;;;13.50;99.90;;;;;;4957196;29;20035;-74
2022/07/11 04:49:00;;;;;;;5.97;2.10;;;13.40;99.90;;;;;;4957481;29;20110;-75
2022/07/11 04:51:27;;;;;;;5.95;1.58;;;13.40;99.90;;;;;;4941348;29;20055;-75
2022/07/11 04:53:54;;;;;;;5.00;2.15;;;13.30;99.90;;;;;;4941562;29;20035;-74
2022/07/11 04:56:22;;;;;;;9.63;1.92;;;13.20;99.90;;;;;;4958860;29;20034;-75
2022/07/11 04:58:49;;;;;;;5.22;1.65;;;13.20;99.90;;;;;;4941642;29;20074;-75
2022/07/11 05:01:17;;;;;;;8.07;1.77;;;13.20;99.90;;;;;;4959764;29;20019;-75
2022/07/11 05:03:45;;;;;;;6.45;1.70;;;13.10;99.90;;;;;;4957784;29;20118;-75
2022/07/11 05:06:12;;;;;;;6.32;1.63;;;13.10;99.90;;;;;;4956427;29;20408;-75
2022/07/11 05:08:39;;;;;;;5.22;1.50;;;13.20;99.90;;;;;;4938626;29;20145;-75
2022/07/11 05:11:08;;;;;;;6.05;1.55;;;13.20;99.90;;;;;;4955061;29;20043;-74
2022/07/11 05:13:37;;;;;;;7.20;2.30;;;13.20;99.90;;;;;;4955301;29;20120;-75
2022/07/11 05:16:05;;;;;;;6.05;1.90;;;13.20;99.90;;;;;;4955747;29;20055;-75
2022/07/11 05:18:33;;;;;;;6.18;1.40;;;13.20;99.90;;;;;;4955079;29;20023;-75
2022/07/11 05:21:00;;;;;;;7.35;1.48;;;13.30;99.90;;;;;;4954479;29;20094;-74
2022/07/11 05:23:27;;;;;;;4.03;1.60;;;13.30;99.90;;;;;;4954871;29;20047;-74
2022/07/11 05:25:54;;;;;;;8.57;1.55;;;13.40;99.90;;;;;;4954969;29;20511;-74
2022/07/11 05:28:22;;;;;;;5.00;1.42;;;13.40;99.90;;;;;;4954240;29;20396;-74
2022/07/11 05:30:49;;;;;;;6.65;1.63;;;13.40;99.90;;;;;;4957569;29;20058;-74
2022/07/11 05:33:16;;;;;;;6.85;2.03;;;13.50;99.90;;;;;;4937083;29;20039;-75
2022/07/11 05:35:47;;;;;;;6.43;1.83;;;13.60;99.90;;;;;;4957152;29;20399;-75
2022/07/11 05:38:14;;;;;;;5.53;1.73;;;13.50;99.90;;;;;;4959227;29;20023;-75
2022/07/11 05:40:41;;;;;;;4.97;1.45;;;13.50;99.90;;;;;;4960792;29;20027;-74
2022/07/11 05:43:09;;;;;;;5.00;1.90;;;13.50;99.90;;;;;;4961354;29;20035;-75
2022/07/11 05:45:36;;;;;;;5.35;1.42;;;13.40;99.90;;;;;;4959368;29;20028;-74
2022/07/11 05:48:04;;;;;;;7.35;2.42;;;13.40;99.90;;;;;;4958271;29;20101;-74
2022/07/11 05:50:31;;;;;;;4.55;1.88;;;13.30;99.90;;;;;;4958790;29;20030;-74
2022/07/11 05:52:58;;;;;;;6.00;1.50;;;13.30;99.90;;;;;;4958954;29;20038;-74
2022/07/11 05:55:26;;;;;;;4.07;1.60;;;13.10;99.90;;;;;;4958637;29;20030;-75
2022/07/11 05:57:54;;;;;;;6.35;1.45;;;13.20;99.90;;;;;;4940862;29;20118;-75
2022/07/11 06:00:22;;;;;;;5.97;1.80;;;13.20;99.90;;;;;;4940279;29;20031;-75
2022/07/11 06:02:50;;;;;;;7.00;1.67;;;13.10;99.90;;;;;;4940506;29;20460;-75
2022/07/11 06:05:17;;;;;;;5.85;1.58;;;13.10;99.90;;;;;;4958435;29;20043;-74
2022/07/11 06:10:31;;;;;;;4.97;1.45;;;13.00;99.90;;;;;;4957057;29;20121;-74
2022/07/11 06:12:59;;;;;;;6.28;1.60;;;13.00;99.90;;;;;;4957200;29;20027;-75
2022/07/11 06:15:26;;;;;;;5.57;1.67;;;13.00;99.90;;;;;;4956855;29;20102;-74
2022/07/11 06:17:53;;;;;;;3.33;1.20;;;12.90;99.90;;;;;;4956913;29;20098;-74
2022/07/11 06:20:21;;;;;;;5.80;1.55;;;12.80;99.90;;;;;;4956881;29;20027;-74
2022/07/11 06:22:48;;;;;;;4.93;1.30;;;12.80;99.90;;;;;;4956719;29;20047;-75
2022/07/11 06:25:15;;;;;;;4.25;1.42;;;12.70;99.90;;;;;;4939688;29;20031;-74
2022/07/11 06:27:43;;;;;;;5.13;1.40;;;12.70;99.90;;;;;;4940082;29;20122;-75
2022/07/11 06:30:10;;;;;;;6.55;1.40;;;12.60;99.90;;;;;;4956503;29;20027;-74
2022/07/11 06:32:40;;;;;;;6.97;1.77;;;12.60;99.90;;;;;;4957000;29;20030;-75
2022/07/11 06:35:08;;;;;;;8.40;1.98;;;12.50;99.90;;;;;;4956429;29;20015;-75
2022/07/11 06:37:38;;;;;;;4.93;1.65;;;12.50;99.90;;;;;;4956574;29;20043;-75
2022/07/11 06:40:09;;;;;;;3.45;1.50;;;12.40;99.90;;;;;;4956842;29;20380;-74
2022/07/11 06:42:37;;;;;;;7.75;1.85;;;12.30;99.90;;;;;;4939054;29;20511;-74
2022/07/11 06:45:05;;;;;;;8.57;1.83;;;12.30;99.90;;;;;;4956100;28;20106;-76
2022/07/11 06:47:32;;;;;;;4.90;1.40;;;12.20;99.90;;;;;;4938912;29;20416;-74
2022/07/11 06:50:00;;;;;;;4.82;1.67;;;12.10;99.90;;;;;;4956341;29;20030;-75
2022/07/11 06:52:27;;;;;;;4.50;1.40;;;12.10;99.90;;;;;;4956137;29;20019;-74
2022/07/11 06:54:55;;;;;;;4.85;1.80;;;12.10;99.90;;;;;;4956071;29;20028;-74
2022/07/11 06:57:22;;;;;;;4.75;2.45;;;12.00;99.90;;;;;;4938762;29;20042;-75
2022/07/11 06:59:49;;;;;;;5.40;1.42;;;12.00;99.90;;;;;;4955833;29;20122;-74
2022/07/11 07:02:17;;;;;;;5.65;1.80;;;12.00;99.90;;;;;;4938505;29;20032;-74
2022/07/11 07:04:44;;;;;;;7.47;2.85;;;11.90;99.90;;;;;;4955720;29;20023;-74
2022/07/11 07:07:11;;;;;;;6.63;2.45;;;11.90;99.90;;;;;;4955545;29;20049;-74
2022/07/11 07:09:38;;;;;;;6.10;2.63;;;11.80;99.90;;;;;;4955725;29;20143;-74
2022/07/11 07:12:06;;;;;;;6.90;2.10;;;11.80;99.90;;;;;;4955809;29;20023;-74
2022/07/11 07:14:33;;;;;;;6.35;2.22;;;11.70;99.90;;;;;;4938306;29;20019;-74
2022/07/11 07:17:01;;;;;;;6.40;2.20;;;11.70;99.90;;;;;;4955967;29;20054;-75
2022/07/11 07:19:28;;;;;;;8.40;2.95;;;11.60;99.90;;;;;;4938360;29;20555;-75
2022/07/11 07:21:55;;;;;;;5.95;3.03;;;11.60;99.90;;;;;;4955421;29;20024;-75
2022/07/11 07:24:23;;;;;;;7.68;3.28;;;11.50;99.90;;;;;;4938034;29;20404;-74
2022/07/11 07:26:50;;;;;;;7.85;4.07;;;11.50;99.90;;;;;;4955350;29;20030;-74
2022/07/11 07:29:17;;;;;;;57.53;30.80;;;11.50;99.90;;;;;;4955516;29;20455;-74
2022/07/11 07:31:45;;;;;;;11.88;5.95;;;11.80;99.90;;;;;;4938238;29;20074;-73
2022/07/11 07:34:12;;;;;;;9.63;3.92;;;11.80;99.90;;;;;;4955595;29;20026;-73
2022/07/11 07:36:39;;;;;;;8.98;4.45;;;11.60;99.90;;;;;;4938113;29;20453;-74
2022/07/11 07:39:07;;;;;;;6.25;3.70;;;11.50;99.90;;;;;;4955390;29;20038;-74
2022/07/11 07:41:34;;;;;;;8.27;3.33;;;11.40;99.90;;;;;;4955292;29;20496;-74
2022/07/11 07:44:02;;;;;;;9.73;4.55;;;11.40;99.90;;;;;;4955605;29;20020;-74
2022/07/11 07:46:29;;;;;;;7.93;3.90;;;11.40;99.90;;;;;;4955364;29;20031;-74
2022/07/11 07:48:57;;;;;;;8.70;4.28;;;11.40;99.90;;;;;;4955211;29;20063;-74
2022/07/11 07:51:24;;;;;;;9.43;4.03;;;11.30;99.90;;;;;;4937843;29;20032;-74
2022/07/11 07:53:51;;;;;;;8.70;4.30;;;11.30;99.90;;;;;;4955169;29;20020;-74
2022/07/11 07:56:19;;;;;;;7.10;3.05;;;11.30;99.90;;;;;;4937803;29;20444;-74
2022/07/11 07:58:47;;;;;;;6.50;4.07;;;11.20;99.90;;;;;;4954510;28;20106;-74
2022/07/11 08:04:00;;;;;;;8.57;4.03;;;11.20;99.90;;;;;;4955106;29;20045;-74
2022/07/11 08:06:28;;;;;;;7.60;4.20;;;11.20;99.90;;;;;;4937477;29;20066;-73
2022/07/11 08:08:55;;;;;;;8.32;3.83;;;11.20;99.90;;;;;;4937459;29;20046;-73
2022/07/11 08:11:22;;;;;;;7.22;3.53;;;11.10;99.90;;;;;;4954859;29;20384;-74
2022/07/11 08:13:50;;;;;;;24.90;13.95;;;11.10;99.90;;;;;;4955053;29;20024;-74
2022/07/11 08:16:17;;;;;;;12.55;5.15;;;11.30;99.90;;;;;;4954895;29;20023;-74
2022/07/11 08:18:45;;;;;;;12.90;4.95;;;11.40;99.90;;;;;;4954858;29;20027;-74
2022/07/11 08:21:12;;;;;;;8.82;4.70;;;11.30;99.90;;;;;;4954886;29;20058;-75
2022/07/11 08:23:40;;;;;;;11.27;4.85;;;11.20;99.90;;;;;;4954793;29;20429;-73
2022/07/11 08:26:07;;;;;;;11.23;5.28;;;11.20;99.90;;;;;;4955055;29;20034;-72
2022/07/11 08:28:35;;;;;;;14.05;5.95;;;11.20;99.90;;;;;;4937360;29;20514;-72
2022/07/11 08:31:02;;;;;;;9.48;4.70;;;11.10;99.90;;;;;;4937483;29;20456;-72
2022/07/11 08:33:29;;;;;;;8.70;4.82;;;11.10;99.90;;;;;;4954758;29;20066;-72
2022/07/11 08:35:57;;;;;;;10.55;4.88;;;11.10;99.90;;;;;;4954692;29;20391;-72
2022/07/11 08:38:24;;;;;;;11.82;5.30;;;11.00;99.90;;;;;;4954708;29;20026;-72
2022/07/11 08:40:51;;;;;;;14.02;5.40;;;11.00;99.90;;;;;;4954744;29;20031;-72
2022/07/11 08:43:28;;;;;;;11.82;6.20;;;11.00;99.90;;;;;;4937439;29;20035;-74
2022/07/11 08:45:55;;;;;;;12.32;4.90;;;11.00;99.90;;;;;;4954669;29;20079;-73
2022/07/11 08:48:23;;;;;;;8.45;5.20;;;10.90;99.90;;;;;;4937319;29;20023;-72
2022/07/11 08:50:51;;;;;;;9.23;5.00;;;10.90;99.90;;;;;;4954541;29;20031;-73
2022/07/11 08:53:19;;;;;;;8.70;5.22;;;10.90;99.90;;;;;;4954523;29;20551;-73
2022/07/11 08:55:47;;;;;;;11.45;4.68;;;10.80;99.90;;;;;;4954589;29;20019;-74
2022/07/11 08:58:15;;;;;;;11.63;4.93;;;10.80;99.90;;;;;;4937192;29;20023;-75
2022/07/11 09:00:44;;;;;;;12.52;5.32;;;10.70;99.90;;;;;;4954567;29;20051;-75
2022/07/11 09:03:15;;;;;;;12.32;5.55;;;10.70;99.90;;;;;;4954558;29;20019;-75
2022/07/11 09:05:44;;;;;;;9.90;4.55;;;10.70;99.90;;;;;;4954360;29;20047;-73
2022/07/11 09:08:11;;;;;;;9.23;4.97;;;10.70;99.90;;;;;;4954562;28;20023;-74
2022/07/11 09:10:40;;;;;;;10.13;4.90;;;10.60;99.90;;;;;;4958053;29;20035;-74
2022/07/11 09:13:15;;;;;;;9.27;5.18;;;10.60;99.90;;;;;;4940728;29;20038;-74
2022/07/11 09:15:48;;;;;;;10.38;5.65;;;10.50;99.90;;;;;;4940686;29;20114;-74
2022/07/11 09:18:37;;;;;;;11.43;5.97;;;10.50;99.90;;;;;;4958227;29;20448;-74
2022/07/11 09:26:48;;;;;;;12.82;5.88;;;10.50;99.90;;;;;;4958419;29;20086;-75
2022/07/11 09:29:18;;;;;;;12.43;5.60;;;10.40;99.90;;;;;;4940479;29;20077;-74
2022/07/11 09:31:46;;;;;;;10.32;5.03;;;10.30;99.90;;;;;;4957902;29;20027;-75
2022/07/11 09:34:18;;;;;;;12.13;5.25;;;10.30;99.90;;;;;;4940367;29;20028;-75
2022/07/11 09:36:56;;;;;;;10.95;4.68;;;10.30;99.90;;;;;;4957675;29;20016;-73
2022/07/11 09:39:26;;;;;;;8.40;4.72;;;10.20;99.90;;;;;;4940336;29;20028;-73
2022/07/11 09:41:54;;;;;;;9.15;5.18;;;10.20;99.90;;;;;;4940301;29;20038;-73
2022/07/11 09:44:28;;;;;;;8.40;5.60;;;10.20;99.90;;;;;;4957498;29;20495;-73
2022/07/11 09:46:57;;;;;;;10.75;6.68;;;10.20;99.90;;;;;;4940239;29;20059;-73
2022/07/11 09:49:34;;;;;;;11.13;7.18;;;10.20;99.90;;;;;;4940022;29;20062;-73
2022/07/11 09:52:16;;;;;;;13.13;7.68;;;10.20;99.90;;;;;;4940049;29;20035;-73
2022/07/11 09:55:00;;;;;;;15.18;9.05;;;10.10;99.90;;;;;;4957649;29;20407;-73
2022/07/11 09:57:35;;;;;;;11.57;9.07;;;10.20;99.90;;;;;;4957248;29;20023;-73
2022/07/11 10:00:06;;;;;;;13.13;9.45;;;10.10;99.90;;;;;;4957201;29;20107;-74
2022/07/11 10:02:34;;;;;;;13.52;8.57;;;10.20;99.90;;;;;;4939805;29;20054;-74
2022/07/11 10:05:02;;;;;;;11.32;8.00;;;10.20;99.90;;;;;;4956807;29;20484;-73
2022/07/11 10:07:30;;;;;;;11.10;8.73;;;10.20;99.90;;;;;;4957492;29;20063;-74
2022/07/11 10:09:59;;;;;;;11.48;7.53;;;10.20;99.90;;;;;;4939738;29;20126;-74
2022/07/11 10:12:29;;;;;;;10.15;7.30;;;10.20;99.90;;;;;;4957038;29;20055;-73
2022/07/11 10:14:59;;;;;;;14.93;8.13;;;10.30;99.90;;;;;;4939706;29;20074;-74
2022/07/11 10:17:53;;;;;;;12.73;7.78;;;10.30;99.90;;;;;;4956946;29;20027;-74
2022/07/11 10:20:44;;;;;;;13.32;9.18;;;10.30;99.90;;;;;;4956239;28;20035;-74
2022/07/11 10:23:17;;;;;;;14.73;7.95;;;10.30;99.90;;;;;;4939539;29;20396;-74
2022/07/11 10:26:01;;;;;;;12.23;8.30;;;10.40;99.90;;;;;;4957332;29;20148;-74
2022/07/11 10:29:00;;;;;;;11.98;8.13;;;10.40;99.90;;;;;;4956790;29;20023;-73
2022/07/11 10:31:30;;;;;;;13.48;8.65;;;10.40;99.90;;;;;;4953004;29;20408;-73
2022/07/11 10:34:03;;;;;;;12.73;8.38;;;10.40;99.90;;;;;;4956649;29;20024;-73
2022/07/11 10:36:33;;;;;;;12.90;7.75;;;10.40;99.90;;;;;;4956678;29;20551;-74
2022/07/11 10:39:27;;;;;;;11.98;7.55;;;10.40;99.90;;;;;;4956958;29;20038;-74
2022/07/11 10:41:56;;;;;;;10.98;7.57;;;10.30;99.90;;;;;;4956545;29;20027;-74
2022/07/11 10:44:24;;;;;;;11.60;6.55;;;10.30;99.90;;;;;;4939182;29;20035;-74
2022/07/11 10:46:54;;;;;;;11.52;7.00;;;10.30;99.90;;;;;;4956436;29;20024;-74
2022/07/11 10:49:30;;;;;;;10.03;6.80;;;10.30;99.90;;;;;;4956305;29;20432;-75
2022/07/11 10:52:09;;;;;;;14.82;8.52;;;10.20;99.90;;;;;;4956368;29;20389;-75
2022/07/11 10:54:39;;;;;;;15.32;7.82;;;10.20;99.90;;;;;;4956308;29;20106;-74
2022/07/11 10:57:34;;;;;;;10.27;7.70;;;10.20;99.90;;;;;;4939182;29;20027;-75
2022/07/11 11:00:10;;;;;;;9.48;6.57;;;10.10;99.90;;;;;;4938994;29;20047;-74
2022/07/11 11:03:06;;;;;;;9.77;7.40;;;10.10;99.90;;;;;;4938774;29;20492;-74
2022/07/11 11:05:54;;;;;;;12.27;7.93;;;10.10;99.90;;;;;;4938532;29;20102;-74
2022/07/11 11:08:36;;;;;;;11.98;7.80;;;10.00;99.90;;;;;;4956122;29;20034;-74
2022/07/11 11:11:05;;;;;;;12.07;7.43;;;10.00;99.90;;;;;;4955971;29;20563;-75
2022/07/11 11:13:37;;;;;;;10.40;7.05;;;10.10;99.90;;;;;;4955867;29;20476;-74
2022/07/11 11:16:20;;;;;;;11.75;7.63;;;10.10;99.90;;;;;;4938635;29;20110;-75
2022/07/11 11:18:47;;;;;;;13.07;7.38;;;10.10;99.90;;;;;;4938568;29;20023;-74
2022/07/11 11:21:16;;;;;;;9.02;6.47;;;10.10;99.90;;;;;;4938474;29;20498;-74
2022/07/11 11:23:59;;;;;;;10.68;6.72;;;10.10;99.90;;;;;;4955753;29;20495;-73
2022/07/11 11:26:44;;;;;;;10.25;7.13;;;10.10;99.90;;;;;;4955836;29;20467;-75
2022/07/11 11:29:11;;;;;;;12.10;7.10;;;10.10;99.90;;;;;;4938450;29;20542;-75
2022/07/11 11:31:38;;;;;;;12.68;7.53;;;10.10;99.90;;;;;;4955166;28;20499;-75
2022/07/11 11:34:06;;;;;;;10.18;6.82;;;10.10;99.90;;;;;;4955131;29;20073;-74
2022/07/11 11:36:33;;;;;;;12.38;7.20;;;10.20;99.90;;;;;;4955580;29;20016;-75
2022/07/11 11:39:00;;;;;;;11.35;7.35;;;10.10;99.90;;;;;;4955424;29;20027;-74
2022/07/11 11:41:29;;;;;;;11.05;6.75;;;10.10;99.90;;;;;;4955399;29;20031;-74
2022/07/11 11:43:58;;;;;;;11.38;6.93;;;10.10;99.90;;;;;;4955426;29;20391;-74
2022/07/11 11:46:36;;;;;;;7.75;6.20;;;10.00;99.90;;;;;;4955436;29;20027;-75
2022/07/11 11:49:04;;;;;;;10.07;6.50;;;10.00;99.90;;;;;;4955314;29;20136;-74
2022/07/11 11:51:33;;;;;;;12.73;6.35;;;9.90;99.90;;;;;;4955306;29;20053;-74
2022/07/11 11:54:04;;;;;;;8.75;6.47;;;10.00;99.90;;;;;;4955158;29;20024;-74
2022/07/11 11:56:36;;;;;;;;;;;10.00;99.90;;;;;;4955785;29;20019;-74
2022/07/11 11:59:09;;;;;;;12.55;6.68;;;10.00;99.90;;;;;;4937943;29;19907;-75
2022/07/11 12:01:39;;;;;;;12.57;6.88;;;10.00;99.90;;;;;;4955217;29;20046;-75
2022/07/11 12:04:11;;;;;;;11.48;5.68;;;10.00;99.90;;;;;;4937823;29;20030;-76
2022/07/11 12:06:41;;;;;;;11.15;4.60;;;10.10;99.90;;;;;;4937551;29;20050;-74
2022/07/11 12:09:09;;;;;;;8.57;4.18;;;10.20;99.90;;;;;;4954905;29;20031;-75
2022/07/11 12:11:38;;;;;;;13.32;3.88;;;10.20;99.90;;;;;;4955333;29;20015;-75
2022/07/11 12:14:09;;;;;;;11.70;5.00;;;10.20;99.90;;;;;;4937733;29;20019;-75
2022/07/11 12:16:42;;;;;;;9.68;3.58;;;10.10;99.90;;;;;;4955051;29;20361;-75
2022/07/11 12:19:12;;;;;;;8.75;3.97;;;10.10;99.90;;;;;;4937738;29;20035;-75
2022/07/11 12:21:44;;;;;;;6.70;4.15;;;10.10;99.90;;;;;;4954902;29;20082;-75
2022/07/11 12:24:16;;;;;;;9.77;5.28;;;10.10;99.90;;;;;;4955149;29;20033;-75
2022/07/11 12:26:44;;;;;;;8.20;4.15;;;10.00;99.90;;;;;;4954921;29;20102;-74
2022/07/11 12:29:24;;;;;;;11.52;4.53;;;10.00;99.90;;;;;;4954651;29;20500;-74
2022/07/11 12:31:59;;;;;;;8.23;4.40;;;10.00;99.90;;;;;;4954783;29;20024;-73
2022/07/11 12:34:46;;;;;;;12.88;6.47;;;9.90;99.90;;;;;;4937490;29;20444;-74
2022/07/11 12:37:18;;;;;;;9.27;5.57;;;10.00;99.90;;;;;;4937522;29;20023;-74
2022/07/11 12:39:58;;;;;;;10.85;6.03;;;10.00;99.90;;;;;;4955264;29;20086;-74
2022/07/11 12:42:36;;;;;;;14.23;6.90;;;10.00;99.90;;;;;;4954771;29;20023;-74
2022/07/11 12:45:15;;;;;;;12.98;7.30;;;9.90;99.90;;;;;;4957802;28;20369;-75
2022/07/11 12:47:48;;;;;;;12.70;7.50;;;10.00;99.90;;;;;;4941222;29;20456;-74
2022/07/11 12:50:17;;;;;;;12.70;7.63;;;10.00;99.90;;;;;;4958464;29;20027;-75
2022/07/11 12:52:49;;;;;;;15.63;9.15;;;10.10;99.90;;;;;;4958706;29;20029;-74
2022/07/11 12:55:24;;;;;;;14.48;8.73;;;10.10;99.90;;;;;;4958518;29;20023;-75
2022/07/11 12:58:17;;;;;;;22.83;9.68;;;10.10;99.90;;;;;;4941107;29;20027;-74
2022/07/11 13:00:58;;;;;;;20.05;9.63;;;10.20;99.90;;;;;;4958341;29;20051;-74
2022/07/11 13:03:28;;;;;;;;;;;10.30;99.90;;;;;;4941435;29;20391;-74
2022/07/11 13:05:58;;;;;;;20.23;8.77;;;10.20;99.90;;;;;;4958043;29;19914;-75
2022/07/11 13:08:46;;;;;;;15.98;8.23;;;10.20;99.90;;;;;;4958207;29;20369;-74
2022/07/11 13:11:22;;;;;;;17.90;8.23;;;10.20;99.90;;;;;;4940874;29;20484;-75
2022/07/11 13:13:50;;;;;;;14.20;8.15;;;10.20;99.90;;;;;;4958156;29;20022;-74